Bruce, Wisconsin
Current Conditions -  °F | °C
As of 5:55 AM on Sunday 25 Jan 2015 (Local Time) from KRCX Reporting Station
Scattered Clouds Scattered Clouds  
Wind Chill:   Ceiling: Unl
Heat Index: 16°   Visibility: 10mi
Dew Point: 10°   Wind: 9mph
Humidity: 77%   Direction: 30°NNE
Pressure: 29.91"   Gusts: NA
Location:  45.46°N, 91.27°W
Report Text: KRCX 251155Z AUTO 03008KT 10SM SCT018 M09/M12 A2991 RMK AO2 T10911125 11023 21091
Loading
Personal Weather Stations






























Interactive Weather Map New forecast layout! Learn more

10-Day Weather Forecast

Advertisements
Track Severe Weather on mobile